Time;durP1;ratioP1;P1;durP2;ratioP2;P2;SDS_P1;SDS_P2;PMS_P1;PMS_P2;Temp;Humidity;BMP_temperature;BMP_pressure;BME280_temperature;BME280_humidity;BME280_pressure;Samples;Min_cycle;Max_cycle;Signal;HPM_P1;HPM_P2
2022/02/21 00:01:08;;;;;;;11.35;2.22;;;;;;;-149.78;100.00;50573.16;5052840;28;20036;-68
2022/02/21 00:03:33;;;;;;;14.40;2.00;;;;;;;-149.78;100.00;50600.53;5038662;28;20037;-69
2022/02/21 00:05:59;;;;;;;14.70;1.88;;;;;;;-149.78;100.00;50594.66;5070777;28;20130;-68
2022/02/21 00:08:25;;;;;;;15.73;2.45;;;;;;;-149.78;100.00;50582.94;5054603;28;20415;-68
2022/02/21 00:10:51;;;;;;;13.57;2.30;;;;;;;-149.78;100.00;50610.31;5030435;28;20048;-69
2022/02/21 00:13:17;;;;;;;24.33;3.10;;;;;;;-149.78;100.00;50565.31;5059639;28;20033;-68
2022/02/21 00:15:42;;;;;;;14.18;3.05;;;;;;;-149.78;100.00;50588.78;5040259;28;20128;-68
2022/02/21 00:18:10;;;;;;;10.00;2.22;;;;;;;-149.78;100.00;50594.66;5041237;28;20103;-68
2022/02/21 00:20:36;;;;;;;16.85;2.05;;;;;;;-149.78;100.00;50569.22;5066416;28;20452;-68
2022/02/21 00:23:02;;;;;;;8.70;2.30;;;;;;;-149.78;100.00;50620.09;5063342;28;20044;-68
2022/02/21 00:25:28;;;;;;;26.02;3.08;;;;;;;-149.78;100.00;50610.31;5054211;28;20036;-68
2022/02/21 00:27:54;;;;;;;24.40;4.03;;;;;;;-149.78;100.00;50577.06;5070406;28;20036;-68
2022/02/21 00:30:20;;;;;;;19.48;2.50;;;;;;;-149.78;100.00;50579.00;5059101;28;20032;-68
2022/02/21 00:32:46;;;;;;;14.93;2.42;;;;;;;-149.78;100.00;50612.25;5065580;28;20032;-68
2022/02/21 00:35:12;;;;;;;25.25;2.75;;;;;;;-149.78;100.00;50627.91;5048175;28;20411;-68
2022/02/21 00:37:38;;;;;;;15.38;2.85;;;;;;;-149.78;100.00;50594.66;5057159;28;20033;-68
2022/02/21 00:40:05;;;;;;;20.02;3.38;;;;;;;-149.78;100.00;50592.72;5069335;28;20055;-68
2022/02/21 00:42:31;;;;;;;18.42;2.90;;;;;;;-149.78;100.00;50588.78;5058997;28;20060;-68
2022/02/21 00:44:58;;;;;;;12.85;2.50;;;;;;;-149.78;100.00;50631.81;5062457;28;20075;-68
2022/02/21 00:47:28;;;;;;;16.60;2.70;;;;;;;-149.78;100.00;50580.97;5067462;28;20047;-68
2022/02/21 00:49:55;;;;;;;20.50;3.05;;;;;;;-149.78;100.00;50608.34;5039347;28;20112;-68
2022/02/21 00:52:22;;;;;;;18.50;2.83;;;;;;;-149.78;100.00;50584.88;5068904;28;20021;-69
2022/02/21 00:54:48;;;;;;;13.75;2.78;;;;;;;-149.78;100.00;50588.78;5062202;28;20033;-68
2022/02/21 00:57:14;;;;;;;11.02;2.33;;;;;;;-149.78;100.00;50608.34;5060032;28;20091;-68
2022/02/21 00:59:41;;;;;;;17.42;2.70;;;;;;;-149.78;100.00;50580.97;5062032;28;20053;-69
2022/02/21 01:02:06;;;;;;;23.98;3.03;;;;;;;-149.78;100.00;50588.78;5038463;28;20059;-68
2022/02/21 01:04:32;;;;;;;9.05;1.73;;;;;;;-149.78;100.00;50584.88;5059715;28;20517;-68
2022/02/21 01:06:58;;;;;;;10.98;2.10;;;;;;;-149.78;100.00;50565.31;5063306;28;20090;-68
2022/02/21 01:09:23;;;;;;;18.38;1.90;;;;;;;-149.78;100.00;50577.06;5073632;28;20036;-69
2022/02/21 01:11:50;;;;;;;21.40;3.33;;;;;;;-149.78;100.00;50588.78;5056495;28;20067;-69
2022/02/21 01:14:15;;;;;;;15.48;3.10;;;;;;;-149.78;100.00;50584.88;5064173;28;20059;-69
2022/02/21 01:16:41;;;;;;;15.43;2.42;;;;;;;-149.78;100.00;50622.03;5058109;28;20486;-69
2022/02/21 01:19:06;;;;;;;19.83;2.70;;;;;;;-149.78;100.00;50592.72;5064968;28;20032;-68
2022/02/21 01:21:33;;;;;;;18.98;3.58;;;;;;;-149.78;100.00;50569.22;5066998;28;20055;-69
2022/02/21 01:23:59;;;;;;;15.55;2.67;;;;;;;-149.78;100.00;50596.63;5037134;28;20037;-69
2022/02/21 01:26:25;;;;;;;20.77;2.78;;;;;;;-149.78;100.00;50651.38;5067831;28;20059;-69
2022/02/21 01:28:51;;;;;;;24.85;2.83;;;;;;;-149.78;100.00;50596.63;5061868;28;20115;-68
2022/02/21 01:31:17;;;;;;;29.75;2.78;;;;;;;-149.78;100.00;50565.31;5060454;28;20033;-69
2022/02/21 01:33:43;;;;;;;16.45;2.75;;;;;;;-149.78;100.00;50608.34;5068142;28;20036;-69
2022/02/21 01:36:09;;;;;;;16.90;2.75;;;;;;;-149.78;100.00;50588.78;5055146;28;20032;-68
2022/02/21 01:38:35;;;;;;;12.40;2.42;;;;;;;-149.78;100.00;50584.88;5065987;28;20198;-68
2022/02/21 01:41:01;;;;;;;17.42;2.20;;;;;;;-149.78;100.00;50586.84;5062308;28;20040;-69
2022/02/21 01:43:27;;;;;;;26.85;2.90;;;;;;;-149.78;100.00;50604.44;5056658;28;20611;-69
2022/02/21 01:45:53;;;;;;;17.17;2.55;;;;;;;-149.78;100.00;50588.78;5048486;28;20142;-69
2022/02/21 01:48:18;;;;;;;20.45;2.35;;;;;;;-149.78;100.00;50635.72;5057677;28;20033;-68
2022/02/21 01:50:44;;;;;;;24.08;2.92;;;;;;;-149.78;100.00;50643.56;5065459;28;20495;-68
2022/02/21 01:53:11;;;;;;;17.42;3.22;;;;;;;-149.78;100.00;50592.72;5065252;28;20036;-69
2022/02/21 01:55:37;;;;;;;19.02;3.22;;;;;;;-149.78;100.00;50565.31;5072533;28;20536;-69
2022/02/21 01:58:05;;;;;;;20.92;3.40;;;;;;;-149.78;100.00;50580.97;5059038;28;20037;-68
2022/02/21 02:00:31;;;;;;;23.73;2.88;;;;;;;-149.78;100.00;50596.63;5061252;28;20123;-69
2022/02/21 02:02:58;;;;;;;16.23;4.00;;;;;;;-149.78;100.00;50608.34;5048193;28;20403;-68
2022/02/21 02:05:25;;;;;;;23.75;2.83;;;;;;;-149.78;100.00;50625.94;5056904;28;20043;-68
2022/02/21 02:07:53;;;;;;;17.83;2.30;;;;;;;-149.78;100.00;50608.34;5074202;28;20068;-68
2022/02/21 02:10:19;;;;;;;19.33;2.30;;;;;;;-149.78;100.00;50596.63;5079376;28;20039;-69
2022/02/21 02:12:46;;;;;;;24.77;2.83;;;;;;;-149.78;100.00;50588.78;5085458;28;20041;-68
2022/02/21 02:15:18;;;;;;;15.98;3.03;;;;;;;-149.78;100.00;50565.31;5083593;28;20055;-69
2022/02/21 02:17:44;;;;;;;24.35;3.53;;;;;;;-149.78;100.00;50577.06;5074972;28;20480;-69
2022/02/21 02:20:12;;;;;;;18.02;2.70;;;;;;;-149.78;100.00;50573.16;5060872;28;20039;-68
2022/02/21 02:22:38;;;;;;;22.83;2.78;;;;;;;-149.78;100.00;50588.78;5069842;28;20036;-68
2022/02/21 02:25:04;;;;;;;20.52;3.25;;;;;;;-149.78;100.00;50596.63;5084956;28;20055;-68
2022/02/21 02:27:30;;;;;;;18.40;2.42;;;;;;;-149.78;100.00;50588.78;5079776;28;20109;-68
2022/02/21 02:30:01;;;;;;;18.90;3.10;;;;;;;-149.78;100.00;50524.25;5090794;28;20044;-69
2022/02/21 02:32:27;;;;;;;18.58;3.83;;;;;;;-149.78;100.00;50584.88;5054197;28;20151;-69
2022/02/21 02:34:53;;;;;;;20.80;2.70;;;;;;;-149.78;100.00;50579.00;5056141;28;20093;-68
2022/02/21 02:37:22;;;;;;;20.55;3.25;;;;;;;-149.78;100.00;50575.09;5081190;28;20040;-69
2022/02/21 02:39:48;;;;;;;20.50;3.47;;;;;;;-149.78;100.00;50584.88;5074472;28;20040;-68
2022/02/21 02:42:14;;;;;;;30.80;3.35;;;;;;;-149.78;100.00;50604.44;5053473;28;20033;-69
2022/02/21 02:44:41;;;;;;;22.85;3.05;;;;;;;-149.78;100.00;50555.53;5063135;28;20115;-69
2022/02/21 02:47:11;;;;;;;14.98;2.65;;;;;;;-149.78;100.00;50604.44;5063115;28;20029;-68
2022/02/21 02:49:38;;;;;;;17.17;2.75;;;;;;;-149.78;100.00;50600.53;5071437;28;20064;-68
2022/02/21 02:52:05;;;;;;;24.48;3.42;;;;;;;-149.78;100.00;50604.44;5059008;28;20116;-69
2022/02/21 02:54:30;;;;;;;19.85;3.08;;;;;;;-149.78;100.00;50580.97;5069772;28;20067;-68
2022/02/21 02:56:56;;;;;;;23.48;2.47;;;;;;;-149.78;100.00;50584.88;5047953;28;20048;-69
2022/02/21 02:59:25;;;;;;;18.90;2.80;;;;;;;-149.78;100.00;50541.84;5042890;28;20044;-69
2022/02/21 03:01:51;;;;;;;19.70;3.42;;;;;;;-149.78;100.00;50580.97;5054972;28;20048;-68
2022/02/21 03:04:17;;;;;;;20.98;3.30;;;;;;;-149.78;100.00;50588.78;5063095;28;20053;-69
2022/02/21 03:06:43;;;;;;;27.20;3.10;;;;;;;-149.78;100.00;50549.69;5062277;28;20048;-68
2022/02/21 03:09:09;;;;;;;19.17;3.45;;;;;;;-149.78;100.00;50524.25;5058049;28;20115;-68
2022/02/21 03:11:34;;;;;;;21.23;3.50;;;;;;;-149.78;100.00;50573.16;5070580;28;20033;-68
2022/02/21 03:14:03;;;;;;;17.40;3.05;;;;;;;-149.78;100.00;50580.97;5041237;28;20369;-68
2022/02/21 03:16:29;;;;;;;15.60;3.30;;;;;;;-149.78;100.00;50602.47;5063837;28;20041;-68
2022/02/21 03:18:58;;;;;;;29.98;3.75;;;;;;;-149.78;100.00;50600.53;5041819;28;20376;-68
2022/02/21 03:21:24;;;;;;;22.52;3.05;;;;;;;-149.78;100.00;50559.47;5060385;28;20049;-68
2022/02/21 03:23:49;;;;;;;19.08;3.80;;;;;;;-149.78;100.00;50573.16;5053924;28;20128;-68
2022/02/21 03:26:15;;;;;;;19.90;3.63;;;;;;;-149.78;100.00;50604.44;5059538;28;20036;-68
2022/02/21 03:28:41;;;;;;;21.67;3.10;;;;;;;-149.78;100.00;50596.63;5057883;28;20045;-68
2022/02/21 03:31:08;;;;;;;22.77;3.10;;;;;;;-149.78;100.00;50565.31;5056533;28;20033;-68
2022/02/21 03:33:35;;;;;;;21.88;2.78;;;;;;;-149.78;100.00;50592.72;5058809;28;20100;-68
2022/02/21 03:36:00;;;;;;;20.23;3.10;;;;;;;-149.78;100.00;50584.88;5055872;28;20048;-68
2022/02/21 03:38:26;;;;;;;27.05;3.35;;;;;;;-149.78;100.00;50561.41;5053231;28;20037;-68
2022/02/21 03:40:52;;;;;;;19.08;3.33;;;;;;;-149.78;100.00;50577.06;5053338;28;20033;-68
2022/02/21 03:43:18;;;;;;;23.10;3.63;;;;;;;-149.78;100.00;50582.94;5056683;28;20372;-68
2022/02/21 03:45:44;;;;;;;28.90;3.80;;;;;;;-149.78;100.00;50573.16;5036763;28;20622;-68
2022/02/21 03:48:09;;;;;;;22.30;3.88;;;;;;;-149.78;100.00;50588.78;5057520;28;20040;-69
2022/02/21 03:50:35;;;;;;;17.42;2.45;;;;;;;-149.78;100.00;50547.72;5061455;28;20033;-71
2022/02/21 03:53:00;;;;;;;25.50;3.00;;;;;;;-149.78;100.00;50549.69;5063954;28;20742;-69
2022/02/21 03:55:26;;;;;;;21.95;3.33;;;;;;;-149.78;100.00;50565.31;5061630;28;20037;-69
2022/02/21 03:57:52;;;;;;;31.10;3.47;;;;;;;-149.78;100.00;50580.97;5055120;28;20033;-70
2022/02/21 04:00:21;;;;;;;22.38;3.25;;;;;;;-149.78;100.00;50565.31;5056448;28;20037;-68
2022/02/21 04:02:47;;;;;;;30.17;3.88;;;;;;;-149.78;100.00;50600.53;5046934;28;20033;-69
2022/02/21 04:05:14;;;;;;;20.08;2.65;;;;;;;-149.78;100.00;50590.75;5053191;28;20541;-67
2022/02/21 04:07:42;;;;;;;19.33;2.90;;;;;;;-149.78;100.00;50592.72;5062795;28;20025;-68
2022/02/21 04:10:16;;;;;;;27.25;3.45;;;;;;;-149.78;100.00;50571.19;5054102;28;20033;-69
2022/02/21 04:12:49;;;;;;;21.58;3.17;;;;;;;-149.78;100.00;50588.78;5038446;28;20029;-69
2022/02/21 04:15:25;;;;;;;21.63;3.10;;;;;;;-149.78;100.00;50565.31;5054258;28;20066;-68
2022/02/21 04:17:52;;;;;;;22.30;2.97;;;;;;;-149.78;100.00;50577.06;5036611;28;20469;-68
2022/02/21 04:20:20;;;;;;;22.08;3.08;;;;;;;-149.78;100.00;50557.50;5058713;28;20035;-68
2022/02/21 04:22:47;;;;;;;25.70;3.45;;;;;;;-149.78;100.00;50537.94;5056117;28;20045;-68
2022/02/21 04:25:13;;;;;;;18.77;3.17;;;;;;;-149.78;100.00;50584.88;5058777;28;20412;-68
2022/02/21 04:27:45;;;;;;;17.58;3.08;;;;;;;-149.78;100.00;50580.97;5054139;28;20036;-68
2022/02/21 04:30:12;;;;;;;24.27;3.30;;;;;;;-149.78;100.00;50565.31;5034215;28;20029;-68
2022/02/21 04:32:41;;;;;;;20.05;4.25;;;;;;;-149.78;100.00;50569.22;5047536;28;20024;-69
2022/02/21 04:35:08;;;;;;;24.00;3.50;;;;;;;-149.78;100.00;50557.50;5062747;28;20033;-68
2022/02/21 04:37:34;;;;;;;21.35;3.60;;;;;;;-149.78;100.00;50545.75;5068977;28;20036;-68
2022/02/21 04:40:00;;;;;;;25.27;4.40;;;;;;;-149.78;100.00;50596.63;5056753;28;20068;-69
2022/02/21 04:42:25;;;;;;;20.90;3.53;;;;;;;-149.78;100.00;50584.88;5063879;28;20542;-68
2022/02/21 04:44:51;;;;;;;26.83;3.88;;;;;;;-149.78;100.00;50592.72;5061790;28;20029;-69
2022/02/21 04:47:17;;;;;;;26.27;3.20;;;;;;;-149.78;100.00;50582.94;5063189;28;20037;-68
2022/02/21 04:49:42;;;;;;;28.98;3.80;;;;;;;-149.78;100.00;50592.72;5068659;28;20031;-68
2022/02/21 04:52:08;;;;;;;20.08;2.95;;;;;;;-149.78;100.00;50577.06;5054820;28;20047;-68
2022/02/21 04:54:33;;;;;;;26.13;3.78;;;;;;;-149.78;100.00;50594.66;5066866;28;20392;-68
2022/02/21 04:56:59;;;;;;;33.15;4.00;;;;;;;-149.78;100.00;50557.50;5046174;28;20152;-69
2022/02/21 04:59:25;;;;;;;21.48;3.38;;;;;;;-149.78;100.00;50557.50;5072256;28;20594;-68
2022/02/21 05:01:50;;;;;;;33.75;4.45;;;;;;;-149.78;100.00;50553.59;5055484;28;20047;-68
2022/02/21 05:04:16;;;;;;;21.88;3.10;;;;;;;-149.78;100.00;50565.31;5061445;28;20032;-68
2022/02/21 05:06:41;;;;;;;28.45;3.70;;;;;;;-149.78;100.00;50545.75;5049781;28;20502;-68
2022/02/21 05:09:07;;;;;;;23.75;4.95;;;;;;;-149.78;100.00;50596.63;5062072;28;20037;-68
2022/02/21 05:11:32;;;;;;;23.75;4.75;;;;;;;-149.78;100.00;50569.22;5067120;28;20028;-68
2022/02/21 05:13:58;;;;;;;33.58;3.55;;;;;;;-149.78;100.00;50584.88;5055360;28;20520;-69
2022/02/21 05:16:24;;;;;;;20.00;3.63;;;;;;;-149.78;100.00;50559.47;5048270;28;20446;-68
2022/02/21 05:18:49;;;;;;;33.63;3.50;;;;;;;-149.78;100.00;50580.97;5062131;28;20468;-68
2022/02/21 05:21:15;;;;;;;30.38;3.88;;;;;;;-149.78;100.00;50561.41;5042773;28;20107;-68
2022/02/21 05:23:41;;;;;;;22.25;3.08;;;;;;;-149.78;100.00;50541.84;5069180;28;20059;-68
2022/02/21 05:26:08;;;;;;;23.77;2.78;;;;;;;-149.78;100.00;50582.94;5038195;28;20032;-68
2022/02/21 05:28:34;;;;;;;43.22;4.20;;;;;;;-149.78;100.00;50537.94;5066481;28;20032;-68
2022/02/21 05:31:00;;;;;;;21.38;3.58;;;;;;;-149.78;100.00;50526.22;5051962;28;20037;-68
2022/02/21 05:33:25;;;;;;;22.38;3.45;;;;;;;-149.78;100.00;50557.50;5049193;28;20090;-68
2022/02/21 05:35:51;;;;;;;33.45;4.05;;;;;;;-149.78;100.00;50575.09;5054561;28;20057;-68
2022/02/21 05:38:16;;;;;;;23.35;3.35;;;;;;;-149.78;100.00;50553.59;5057496;28;20404;-69
2022/02/21 05:40:42;;;;;;;15.50;3.22;;;;;;;-149.78;100.00;50588.78;5065080;28;20033;-68
2022/02/21 05:43:08;;;;;;;28.45;4.03;;;;;;;-149.78;100.00;50573.16;5064509;28;20513;-68
2022/02/21 05:45:34;;;;;;;16.55;2.40;;;;;;;-149.78;100.00;50559.47;5056697;28;20476;-68
2022/02/21 05:47:59;;;;;;;28.65;3.38;;;;;;;-149.78;100.00;50561.41;5053816;28;20057;-69
2022/02/21 05:50:25;;;;;;;23.98;2.88;;;;;;;-149.78;100.00;50551.63;5057183;28;20036;-69
2022/02/21 05:52:50;;;;;;;22.05;2.72;;;;;;;-149.78;100.00;50571.19;5063705;28;20120;-68
2022/02/21 05:55:16;;;;;;;24.25;3.42;;;;;;;-149.78;100.00;50561.41;5052940;28;20476;-68
2022/02/21 05:57:42;;;;;;;31.75;4.03;;;;;;;-149.78;100.00;50569.22;5051041;28;20458;-68
2022/02/21 06:00:08;;;;;;;23.80;2.92;;;;;;;-149.78;100.00;50553.59;5056233;28;20388;-69
2022/02/21 06:02:33;;;;;;;24.23;3.50;;;;;;;-149.78;100.00;50571.19;5064842;28;20117;-68
2022/02/21 06:04:59;;;;;;;23.20;3.55;;;;;;;-149.78;100.00;50549.69;5052787;28;20033;-68
2022/02/21 06:07:25;;;;;;;21.95;3.42;;;;;;;-149.78;100.00;50537.94;5064512;28;20052;-68
2022/02/21 06:09:51;;;;;;;20.00;2.97;;;;;;;-149.78;100.00;50545.75;5069225;28;20487;-68
2022/02/21 06:12:17;;;;;;;15.15;2.70;;;;;;;-149.78;100.00;50559.47;5053205;28;20052;-68
2022/02/21 06:14:43;;;;;;;25.85;3.55;;;;;;;-149.78;100.00;50557.50;5051335;28;20025;-68
2022/02/21 06:17:09;;;;;;;20.05;3.20;;;;;;;-149.78;100.00;50549.69;5064337;28;20036;-68
2022/02/21 06:19:35;;;;;;;25.55;3.30;;;;;;;-149.78;100.00;50539.91;5039548;28;20041;-68
2022/02/21 06:22:02;;;;;;;20.70;3.20;;;;;;;-149.78;100.00;50561.41;5068805;28;20098;-68
2022/02/21 06:24:27;;;;;;;20.65;3.92;;;;;;;-149.78;100.00;50547.72;5058436;28;20089;-68
2022/02/21 06:26:53;;;;;;;20.88;3.50;;;;;;;-149.78;100.00;50559.47;5041043;28;20140;-68
2022/02/21 06:29:20;;;;;;;28.67;3.90;;;;;;;-149.78;100.00;50571.19;5062632;28;20462;-68
2022/02/21 06:31:46;;;;;;;20.27;3.38;;;;;;;-149.78;100.00;50528.16;5054850;28;20040;-69
2022/02/21 06:34:12;;;;;;;16.88;2.88;;;;;;;-149.78;100.00;50573.16;5068826;28;20025;-68
2022/02/21 06:36:38;;;;;;;23.85;3.28;;;;;;;-149.78;100.00;50549.69;5061430;28;20103;-68
2022/02/21 06:39:04;;;;;;;26.83;3.05;;;;;;;-149.78;100.00;50534.03;5043952;28;20373;-68
2022/02/21 06:41:29;;;;;;;25.00;3.63;;;;;;;-149.78;100.00;50537.94;5056755;28;20033;-68
2022/02/21 06:43:55;;;;;;;29.15;4.13;;;;;;;-149.78;100.00;50553.59;5070455;28;20391;-67
2022/02/21 06:46:20;;;;;;;26.25;4.10;;;;;;;-149.78;100.00;50553.59;5056960;28;20041;-68
2022/02/21 06:48:48;;;;;;;18.42;3.22;;;;;;;-149.78;100.00;50561.41;5052600;28;20037;-68
2022/02/21 06:51:14;;;;;;;22.10;3.03;;;;;;;-149.78;100.00;50557.50;5039065;28;20099;-68
2022/02/21 06:53:40;;;;;;;19.52;2.78;;;;;;;-149.78;100.00;50557.50;5035989;28;20461;-68
2022/02/21 06:56:07;;;;;;;22.02;3.13;;;;;;;-149.78;100.00;50541.84;5052133;28;20450;-68
2022/02/21 06:58:33;;;;;;;26.08;3.15;;;;;;;-149.78;100.00;50537.94;5038997;28;20083;-68
2022/02/21 07:00:58;;;;;;;24.92;3.17;;;;;;;-149.78;100.00;50506.66;5038828;28;20033;-68
2022/02/21 07:03:24;;;;;;;20.15;3.03;;;;;;;-149.78;100.00;50512.50;5038374;28;20404;-68
2022/02/21 07:05:49;;;;;;;21.40;3.42;;;;;;;-149.78;100.00;50522.28;5048205;28;20464;-68
2022/02/21 07:08:15;;;;;;;24.23;3.63;;;;;;;-149.78;100.00;50537.94;5051825;28;20025;-68
2022/02/21 07:10:41;;;;;;;20.20;3.13;;;;;;;-149.78;100.00;50553.59;5049974;28;20091;-68
2022/02/21 07:13:07;;;;;;;27.20;3.80;;;;;;;-149.78;100.00;50545.75;5050836;28;20035;-69
2022/02/21 07:15:32;;;;;;;17.45;3.40;;;;;;;-149.78;100.00;50530.13;5053722;28;20033;-68
2022/02/21 07:17:58;;;;;;;22.00;3.65;;;;;;;-149.78;100.00;50553.59;5049963;28;20469;-68
2022/02/21 07:20:25;;;;;;;32.88;5.28;;;;;;;-149.78;100.00;50514.47;5056480;28;20467;-67
2022/02/21 07:22:51;;;;;;;20.17;3.05;;;;;;;-149.78;100.00;50549.69;5045701;28;20497;-67
2022/02/21 07:25:17;;;;;;;24.23;4.05;;;;;;;-149.78;100.00;50530.13;5061415;28;20033;-67
2022/02/21 07:27:53;;;;;;;20.98;2.70;;;;;;;-149.78;100.00;50534.03;5053456;28;20032;-67
2022/02/21 07:30:23;;;;;;;27.65;3.88;;;;;;;-149.78;100.00;50518.38;5067193;28;20039;-68
2022/02/21 07:32:49;;;;;;;19.65;3.47;;;;;;;-149.78;100.00;50506.66;5047856;28;20025;-67
2022/02/21 07:35:15;;;;;;;19.13;2.92;;;;;;;-149.78;100.00;50561.41;5054128;28;20048;-68
2022/02/21 07:37:41;;;;;;;21.83;2.95;;;;;;;-149.78;100.00;50537.94;5072826;28;20134;-67
2022/02/21 07:40:09;;;;;;;18.23;3.05;;;;;;;-149.78;100.00;50534.03;5057341;28;20111;-67
2022/02/21 07:42:36;;;;;;;26.98;3.75;;;;;;;-149.78;100.00;50551.63;5051627;28;20590;-68
2022/02/21 07:45:02;;;;;;;23.35;2.60;;;;;;;-149.78;100.00;50506.66;5067333;28;20029;-68
2022/02/21 07:47:28;;;;;;;22.42;3.17;;;;;;;-149.78;100.00;50526.22;5061237;28;20044;-67
2022/02/21 07:49:54;;;;;;;15.95;3.55;;;;;;;-149.78;100.00;50510.56;5072333;28;20036;-68
2022/02/21 07:52:20;;;;;;;8.57;2.15;;;;;;;-149.78;100.00;50516.44;5058792;28;20021;-67
2022/02/21 07:54:45;;;;;;;13.13;2.10;;;;;;;-149.78;100.00;50530.13;5065760;28;20202;-67
2022/02/21 07:57:11;;;;;;;17.40;3.85;;;;;;;-149.78;100.00;50510.56;5067415;28;20040;-67
2022/02/21 07:59:38;;;;;;;16.77;2.25;;;;;;;-149.78;100.00;50498.81;5026940;28;20409;-67
2022/02/21 08:02:04;;;;;;;14.05;2.20;;;;;;;-149.78;100.00;50534.03;5052220;28;20047;-68
2022/02/21 08:04:30;;;;;;;20.88;3.53;;;;;;;-149.78;100.00;50537.94;5037480;28;20832;-67
2022/02/21 08:06:56;;;;;;;20.35;2.92;;;;;;;-149.78;100.00;50514.47;5045567;28;20069;-67
2022/02/21 08:09:22;;;;;;;19.38;3.30;;;;;;;-149.78;100.00;50530.13;5039661;28;20124;-67
2022/02/21 08:11:48;;;;;;;23.58;2.80;;;;;;;-149.78;100.00;50537.94;5051538;28;20040;-67
2022/02/21 08:14:14;;;;;;;16.73;3.00;;;;;;;-149.78;100.00;50522.28;5048875;28;20033;-67
2022/02/21 08:16:40;;;;;;;16.33;2.70;;;;;;;-149.78;100.00;50514.47;5044017;28;20472;-67
2022/02/21 08:19:06;;;;;;;19.75;3.03;;;;;;;-149.78;100.00;50510.56;5054214;28;20109;-67
2022/02/21 08:21:33;;;;;;;17.08;2.83;;;;;;;-149.78;100.00;50534.03;5063015;28;20056;-67
2022/02/21 08:23:59;;;;;;;20.27;3.15;;;;;;;-149.78;100.00;50502.75;5055596;28;20044;-67
2022/02/21 08:26:25;;;;;;;28.90;5.30;;;;;;;-149.78;100.00;50479.28;5038093;28;20148;-68
2022/02/21 08:28:51;;;;;;;19.10;3.00;;;;;;;-149.78;100.00;50518.38;5036631;28;20037;-67
2022/02/21 08:31:18;;;;;;;15.73;3.10;;;;;;;-149.78;100.00;50506.66;5048303;28;20040;-67
2022/02/21 08:33:43;;;;;;;18.30;2.88;;;;;;;-149.78;100.00;50510.56;5048157;28;20021;-67
2022/02/21 08:36:09;;;;;;;21.25;3.10;;;;;;;-149.78;100.00;50535.97;5056247;28;20547;-67
2022/02/21 08:38:35;;;;;;;19.95;3.10;;;;;;;-149.78;100.00;50518.38;5048951;28;20090;-67
2022/02/21 08:41:01;;;;;;;25.60;3.60;;;;;;;-149.78;100.00;50522.28;5034420;28;20037;-68
2022/02/21 08:43:28;;;;;;;21.77;3.08;;;;;;;-149.78;100.00;50502.75;5044205;28;20037;-67
2022/02/21 08:45:57;;;;;;;28.27;3.53;;;;;;;-149.78;100.00;50451.88;5041931;28;20087;-67
2022/02/21 08:48:23;;;;;;;37.13;4.57;;;;;;;-149.78;100.00;50514.47;5052797;28;20376;-68
2022/02/21 08:50:50;;;;;;;34.22;4.13;;;;;;;-149.78;100.00;50498.81;5047719;28;20053;-67
2022/02/21 08:53:16;;;;;;;39.58;4.55;;;;;;;-149.78;100.00;50506.66;5039253;28;20041;-67
2022/02/21 08:55:42;;;;;;;35.40;4.18;;;;;;;-149.78;100.00;50502.75;5042615;28;20128;-67
2022/02/21 08:58:08;;;;;;;31.45;4.13;;;;;;;-149.78;100.00;50485.13;5044059;28;20142;-67
2022/02/21 09:00:33;;;;;;;26.75;3.78;;;;;;;-149.78;100.00;50481.22;5043673;28;20230;-67
2022/02/21 09:02:59;;;;;;;26.58;3.47;;;;;;;-149.78;100.00;50487.09;5041402;28;20038;-66
2022/02/21 09:05:26;;;;;;;24.45;3.75;;;;;;;-149.78;100.00;50487.09;5038139;28;20034;-67
2022/02/21 09:07:53;;;;;;;23.17;3.35;;;;;;;-149.78;100.00;50447.97;5042774;28;20369;-67
2022/02/21 09:10:19;;;;;;;23.45;4.32;;;;;;;-149.78;100.00;50479.28;5039780;28;20480;-67
2022/02/21 09:12:45;;;;;;;23.17;3.95;;;;;;;-149.78;100.00;50444.06;5035106;28;20179;-67
2022/02/21 09:15:11;;;;;;;37.42;4.65;;;;;;;-149.78;100.00;50467.53;5036302;28;20132;-67
2022/02/21 09:17:37;;;;;;;28.65;4.13;;;;;;;-149.78;100.00;50469.50;5041372;28;20028;-67
2022/02/21 09:20:03;;;;;;;27.17;4.10;;;;;;;-149.78;100.00;50475.34;5039167;28;20041;-67
2022/02/21 09:22:28;;;;;;;30.98;4.05;;;;;;;-149.78;100.00;50489.03;5039603;28;20045;-67
2022/02/21 09:24:55;;;;;;;31.33;3.75;;;;;;;-149.78;100.00;50459.72;5046399;28;20051;-67
2022/02/21 09:37:35;;;;;;;21.50;2.90;;;;;;;-149.78;100.00;50514.47;4948606;24;20394;-73
2022/02/21 09:40:06;;;;;;;23.38;3.78;;;;;;;-149.78;100.00;50471.44;4767775;30;20058;-73
2022/02/21 09:42:31;;;;;;;24.88;4.40;;;;;;;-149.78;100.00;50510.56;4771419;30;20077;-72
2022/02/21 09:44:58;;;;;;;20.35;3.83;;;;;;;-149.78;100.00;50494.91;4768842;30;20052;-72
2022/02/21 09:47:23;;;;;;;27.23;3.92;;;;;;;-149.78;100.00;50508.59;4771110;30;20039;-72
2022/02/21 09:49:53;;;;;;;21.05;4.22;;;;;;;-149.78;100.00;50465.56;4761999;30;20050;-72
2022/02/21 09:52:19;;;;;;;26.65;4.18;;;;;;;-149.78;100.00;50469.50;4773854;30;20043;-71
2022/02/21 09:54:45;;;;;;;15.85;3.20;;;;;;;-149.78;100.00;50475.34;4771811;30;20484;-72
2022/02/21 09:57:14;;;;;;;19.73;3.38;;;;;;;-149.78;100.00;50483.19;4769468;30;20406;-72
2022/02/21 09:59:40;;;;;;;25.33;2.90;;;;;;;-149.78;100.00;50477.31;4769924;30;21318;-72
2022/02/21 10:02:06;;;;;;;27.00;3.38;;;;;;;-149.78;100.00;50504.69;4756205;30;20043;-72
2022/02/21 10:04:32;;;;;;;16.25;3.78;;;;;;;-149.78;100.00;50467.53;4776792;30;20038;-72
2022/02/21 10:06:58;;;;;;;17.25;3.08;;;;;;;-149.78;100.00;50483.19;4773893;30;20043;-72
2022/02/21 10:09:25;;;;;;;19.38;2.70;;;;;;;-149.78;100.00;50483.19;4743022;30;20041;-72
2022/02/21 10:11:54;;;;;;;18.48;2.80;;;;;;;-149.78;100.00;50471.44;4743219;30;20062;-72
2022/02/21 10:14:22;;;;;;;13.70;2.70;;;;;;;-149.78;100.00;50440.16;4776682;30;20193;-72
2022/02/21 10:16:50;;;;;;;19.63;3.92;;;;;;;-149.78;100.00;50487.09;4777374;30;20042;-72
2022/02/21 10:19:36;;;;;;;21.73;2.63;;;;;;;-149.78;100.00;50404.94;4777707;30;20093;-72
2022/02/21 10:22:06;;;;;;;12.85;2.75;;;;;;;-149.78;100.00;50414.72;4777937;30;20070;-72
2022/02/21 10:24:41;;;;;;;13.55;2.60;;;;;;;-149.78;100.00;50377.56;4777826;30;20034;-72
2022/02/21 10:27:29;;;;;;;17.00;2.30;;;;;;;-149.78;100.00;50358.00;4776101;30;20549;-72
2022/02/21 10:30:04;;;;;;;17.05;3.53;;;;;;;-149.78;100.00;50389.31;4776381;30;20067;-72
2022/02/21 10:32:35;;;;;;;17.83;2.33;;;;;;;-149.78;100.00;50361.91;4779995;30;20439;-72
2022/02/21 10:35:20;;;;;;;24.60;3.15;;;;;;;-149.78;100.00;50377.56;4778092;30;20403;-72
2022/02/21 10:38:04;;;;;;;23.13;3.50;;;;;;;-149.78;100.00;50432.31;4757421;30;20063;-72
2022/02/21 10:40:38;;;;;;;15.02;3.10;;;;;;;-149.78;100.00;50428.41;4775023;30;20500;-72
2022/02/21 10:43:10;;;;;;;18.75;3.28;;;;;;;-149.78;100.00;50432.31;4775154;30;20089;-71
2022/02/21 10:45:37;;;;;;;23.23;2.55;;;;;;;-149.78;100.00;50420.59;4778382;30;20040;-71
2022/02/21 10:48:06;;;;;;;26.08;3.38;;;;;;;-149.78;100.00;50451.88;4777260;30;20040;-72
2022/02/21 10:50:38;;;;;;;18.35;3.00;;;;;;;-149.78;100.00;50455.81;4778047;30;20048;-72
2022/02/21 10:53:10;;;;;;;16.05;3.17;;;;;;;-149.78;100.00;50403.00;4778569;30;20031;-71
2022/02/21 10:55:36;;;;;;;18.60;3.38;;;;;;;-149.78;100.00;50393.22;4774681;30;20484;-71
2022/02/21 10:58:25;;;;;;;21.92;3.30;;;;;;;-149.78;100.00;50371.69;4771499;30;20520;-72
2022/02/21 11:00:52;;;;;;;25.25;3.45;;;;;;;-149.78;100.00;50344.31;4775545;30;20047;-69
2022/02/21 11:03:23;;;;;;;17.30;3.13;;;;;;;-149.78;100.00;50373.66;4777146;30;20047;-67
2022/02/21 11:05:50;;;;;;;14.23;3.13;;;;;;;-149.78;100.00;50381.47;4779363;30;20118;-67
2022/02/21 11:08:18;;;;;;;20.88;3.20;;;;;;;-149.78;100.00;50365.84;4776578;30;20032;-67
2022/02/21 11:10:48;;;;;;;14.60;2.97;;;;;;;-149.78;100.00;50358.00;4781373;30;20036;-71